createdAt,value
2022-12-25T00:02:17.875Z,29.25
2022-12-25T00:04:44.590Z,23.83
2022-12-25T00:07:11.126Z,23.33
2022-12-25T00:09:37.532Z,19.08
2022-12-25T00:12:04.046Z,27.13
2022-12-25T00:14:30.471Z,25.25
2022-12-25T00:16:57.037Z,28.88
2022-12-25T00:19:23.505Z,27.83
2022-12-25T00:21:49.938Z,25.13
2022-12-25T00:24:16.400Z,24.65
2022-12-25T00:26:43.474Z,28.77
2022-12-25T00:29:13.652Z,24.90
2022-12-25T00:31:40.421Z,19.17
2022-12-25T00:34:07.239Z,16.00
2022-12-25T00:36:39.509Z,22.80
2022-12-25T00:39:08.049Z,27.50
2022-12-25T00:41:53.078Z,18.20
2022-12-25T00:44:19.641Z,25.75
2022-12-25T00:46:46.725Z,22.42
2022-12-25T00:49:13.445Z,17.08
2022-12-25T00:51:39.955Z,24.65
2022-12-25T00:54:06.675Z,30.27
2022-12-25T00:56:33.276Z,29.63
2022-12-25T00:58:59.739Z,20.83
2022-12-25T01:01:26.263Z,25.85
2022-12-25T01:03:52.877Z,21.13
2022-12-25T01:06:19.678Z,26.80
2022-12-25T01:09:04.689Z,17.05
2022-12-25T01:11:31.648Z,29.00
2022-12-25T01:13:58.351Z,16.30
2022-12-25T01:16:25.179Z,17.98
2022-12-25T01:18:52.057Z,21.30
2022-12-25T01:21:21.234Z,20.15
2022-12-25T01:23:50.487Z,20.52
2022-12-25T01:26:18.340Z,18.83
2022-12-25T01:28:45.141Z,16.33
2022-12-25T01:31:15.025Z,17.42
2022-12-25T01:33:43.753Z,19.08
2022-12-25T01:36:18.140Z,20.55
2022-12-25T01:38:45.732Z,21.38
2022-12-25T01:41:13.701Z,14.90
2022-12-25T01:44:27.918Z,16.48
2022-12-25T01:46:54.310Z,19.08
2022-12-25T01:49:25.043Z,17.58
2022-12-25T01:51:57.144Z,21.45
2022-12-25T01:54:31.535Z,14.82
2022-12-25T01:57:02.747Z,22.20
2022-12-25T01:59:29.730Z,21.05
2022-12-25T02:01:57.000Z,19.10
2022-12-25T02:04:41.210Z,18.65
2022-12-25T02:07:18.840Z,18.30
2022-12-25T02:09:46.079Z,14.40
2022-12-25T02:12:22.742Z,19.40
2022-12-25T02:14:50.912Z,15.77
2022-12-25T02:17:31.271Z,24.23
2022-12-25T02:20:04.199Z,22.73
2022-12-25T02:22:54.308Z,18.98
2022-12-25T02:25:59.639Z,16.60
2022-12-25T02:28:29.990Z,17.63
2022-12-25T02:31:05.000Z,14.35
2022-12-25T02:36:28.237Z,15.13
2022-12-25T02:39:17.075Z,20.48
2022-12-25T02:41:47.402Z,11.88
2022-12-25T02:44:37.827Z,14.82
2022-12-25T02:47:27.529Z,17.83
2022-12-25T02:50:14.878Z,11.65
2022-12-25T02:53:02.781Z,25.52
2022-12-25T02:55:58.435Z,16.63
2022-12-25T02:58:45.503Z,23.13
2022-12-25T03:01:35.437Z,20.52
2022-12-25T03:04:26.752Z,21.52
2022-12-25T03:07:01.967Z,18.23
2022-12-25T03:09:52.020Z,22.50
2022-12-25T03:12:29.621Z,29.10
2022-12-25T03:15:14.544Z,23.88
2022-12-25T03:17:41.417Z,17.50
2022-12-25T03:20:27.293Z,20.40
2022-12-25T03:23:12.929Z,21.25
2022-12-25T03:25:57.802Z,25.10
2022-12-25T03:28:24.332Z,18.30
2022-12-25T03:31:12.598Z,14.05
2022-12-25T03:34:13.330Z,18.05
2022-12-25T03:37:17.136Z,15.13
2022-12-25T03:39:49.444Z,21.60
2022-12-25T03:42:39.619Z,13.63
2022-12-25T03:45:30.851Z,27.15
2022-12-25T03:48:18.499Z,18.08
2022-12-25T03:51:07.669Z,18.25
2022-12-25T03:54:06.772Z,13.02
2022-12-25T03:56:54.126Z,19.33
2022-12-25T03:59:41.905Z,20.85
2022-12-25T04:02:27.396Z,15.55
2022-12-25T04:05:12.609Z,17.00
2022-12-25T04:07:58.082Z,12.82
2022-12-25T04:10:43.980Z,12.65
2022-12-25T04:13:29.395Z,15.77
2022-12-25T04:16:14.501Z,15.63
2022-12-25T04:18:59.609Z,20.75
2022-12-25T04:21:44.541Z,23.35
2022-12-25T04:24:30.006Z,16.50
2022-12-25T04:27:15.594Z,17.73
2022-12-25T04:30:00.415Z,18.75
2022-12-25T04:32:45.292Z,16.08
2022-12-25T04:35:30.598Z,14.25
2022-12-25T04:37:57.251Z,16.17
2022-12-25T04:40:23.737Z,12.40
2022-12-25T04:42:51.427Z,16.15
2022-12-25T04:45:18.269Z,16.90
2022-12-25T04:47:44.788Z,10.35
2022-12-25T04:50:11.510Z,14.85
2022-12-25T04:52:40.253Z,13.70
2022-12-25T04:55:08.168Z,10.65
2022-12-25T04:57:34.798Z,11.55
2022-12-25T05:00:01.606Z,17.88
2022-12-25T05:02:28.418Z,19.63
2022-12-25T05:04:55.010Z,13.55
2022-12-25T05:07:21.527Z,13.60
2022-12-25T05:09:48.280Z,12.90
2022-12-25T05:12:14.738Z,13.18
2022-12-25T05:14:41.579Z,12.73
2022-12-25T05:17:08.245Z,19.90
2022-12-25T05:19:35.088Z,14.63
2022-12-25T05:22:02.092Z,14.35
2022-12-25T05:24:28.787Z,14.45
2022-12-25T05:26:55.476Z,13.95
2022-12-25T05:29:22.411Z,19.52
2022-12-25T05:31:48.966Z,14.77
2022-12-25T05:34:15.486Z,12.18
2022-12-25T05:36:43.008Z,14.52
2022-12-25T05:39:09.967Z,18.58
2022-12-25T05:41:36.412Z,16.25
2022-12-25T05:44:02.983Z,13.45
2022-12-25T05:46:29.525Z,15.07
2022-12-25T05:48:56.115Z,18.15
2022-12-25T05:51:22.564Z,13.80
2022-12-25T05:53:49.114Z,11.45
2022-12-25T05:56:15.756Z,13.05
2022-12-25T05:58:42.401Z,11.77
2022-12-25T06:01:21.559Z,17.63
2022-12-25T06:03:48.567Z,12.10
2022-12-25T06:06:15.334Z,10.82
2022-12-25T06:08:41.805Z,15.65
2022-12-25T06:11:09.295Z,10.07
2022-12-25T06:13:36.989Z,6.85
2022-12-25T06:16:08.529Z,11.60
2022-12-25T06:18:43.012Z,16.08
2022-12-25T06:21:11.313Z,12.50
2022-12-25T06:23:39.013Z,12.98
2022-12-25T06:26:07.770Z,14.38
2022-12-25T06:28:34.317Z,9.88
2022-12-25T06:31:07.410Z,11.35
2022-12-25T06:33:34.004Z,13.10
2022-12-25T06:36:08.407Z,6.30
2022-12-25T06:38:35.216Z,9.57
2022-12-25T06:41:12.972Z,7.28
2022-12-25T06:43:39.498Z,6.07
2022-12-25T06:46:09.521Z,9.50
2022-12-25T06:48:37.582Z,11.48
2022-12-25T06:51:05.696Z,8.73
2022-12-25T06:53:39.657Z,7.07
2022-12-25T06:56:09.316Z,11.32
2022-12-25T06:58:36.202Z,7.63
2022-12-25T07:01:15.620Z,8.77
2022-12-25T07:03:44.185Z,16.92
2022-12-25T07:06:11.246Z,6.80
2022-12-25T07:08:37.723Z,7.53
2022-12-25T07:11:04.780Z,8.13
2022-12-25T07:13:31.248Z,7.05
2022-12-25T07:15:59.703Z,16.33
2022-12-25T07:18:27.024Z,10.77
2022-12-25T07:20:55.747Z,7.72
2022-12-25T07:23:23.176Z,5.65
2022-12-25T07:25:57.502Z,9.02
2022-12-25T07:28:24.754Z,11.95
2022-12-25T07:30:51.647Z,8.55
2022-12-25T07:33:19.125Z,7.80
2022-12-25T07:35:45.925Z,8.90
2022-12-25T07:38:12.524Z,11.48
2022-12-25T07:40:39.237Z,10.52
2022-12-25T07:43:05.783Z,9.90
2022-12-25T07:45:32.327Z,6.70
2022-12-25T07:48:04.931Z,11.40
2022-12-25T07:50:32.447Z,9.07
2022-12-25T07:52:59.003Z,9.10
2022-12-25T07:55:25.431Z,8.63
2022-12-25T07:57:52.144Z,6.82
2022-12-25T08:00:19.631Z,7.70
2022-12-25T08:02:50.036Z,7.38
2022-12-25T08:05:16.837Z,6.75
2022-12-25T08:07:43.584Z,5.00
2022-12-25T08:10:10.386Z,6.65
2022-12-25T08:12:36.898Z,7.18
2022-12-25T08:15:03.961Z,5.07
2022-12-25T08:17:30.798Z,7.32
2022-12-25T08:19:57.236Z,9.27
2022-12-25T08:22:23.664Z,7.38
2022-12-25T08:24:50.147Z,5.22
2022-12-25T08:27:16.657Z,8.38
2022-12-25T08:29:46.041Z,6.30
2022-12-25T08:32:12.508Z,9.48
2022-12-25T08:34:39.269Z,8.18
2022-12-25T08:37:05.750Z,9.02
2022-12-25T08:39:32.337Z,5.63
2022-12-25T08:41:58.791Z,7.07
2022-12-25T08:44:25.262Z,5.90
2022-12-25T08:46:51.817Z,12.98
2022-12-25T08:49:18.266Z,11.90
2022-12-25T08:51:45.608Z,8.63
2022-12-25T08:54:12.407Z,11.75
2022-12-25T08:56:38.976Z,12.52
2022-12-25T08:59:05.444Z,10.18
2022-12-25T09:01:31.941Z,8.50
2022-12-25T09:03:58.428Z,8.50
2022-12-25T09:06:26.291Z,9.05
2022-12-25T09:08:52.854Z,10.05
2022-12-25T09:11:20.394Z,9.40
2022-12-25T09:13:48.147Z,6.93
2022-12-25T09:16:17.864Z,7.72
2022-12-25T09:18:44.584Z,13.32
2022-12-25T09:21:12.812Z,8.30
2022-12-25T09:23:39.479Z,6.35
2022-12-25T09:26:08.081Z,6.90
2022-12-25T09:28:35.054Z,7.90
2022-12-25T09:31:02.564Z,8.73
2022-12-25T09:33:29.062Z,13.80
2022-12-25T09:36:04.818Z,15.45
2022-12-25T09:38:32.070Z,7.35
2022-12-25T09:41:06.478Z,15.27
2022-12-25T09:43:38.827Z,9.40
2022-12-25T09:46:13.248Z,9.32
2022-12-25T09:48:42.369Z,9.05
2022-12-25T09:51:12.995Z,6.85
2022-12-25T09:53:44.236Z,9.20
2022-12-25T09:56:14.394Z,7.07
2022-12-25T09:58:40.916Z,6.38
2022-12-25T10:01:26.793Z,4.95
2022-12-25T10:04:03.905Z,7.45
2022-12-25T10:06:41.508Z,8.70
2022-12-25T10:09:10.796Z,9.77
2022-12-25T10:12:06.002Z,5.45
2022-12-25T10:14:47.816Z,8.57
2022-12-25T10:17:28.967Z,5.75
2022-12-25T10:20:13.674Z,6.43
2022-12-25T10:22:44.137Z,8.10
2022-12-25T10:25:23.170Z,9.88
2022-12-25T10:27:54.228Z,7.18
2022-12-25T10:30:26.091Z,6.97
2022-12-25T10:32:54.923Z,10.20
2022-12-25T10:35:23.198Z,10.45
2022-12-25T10:38:01.275Z,9.60
2022-12-25T10:40:47.627Z,10.73
2022-12-25T10:43:24.714Z,6.18
2022-12-25T10:45:51.182Z,8.38
2022-12-25T10:48:25.894Z,10.02
2022-12-25T10:50:52.833Z,9.40
2022-12-25T10:53:25.987Z,7.47
2022-12-25T10:56:04.446Z,8.52
2022-12-25T10:58:32.020Z,10.82
2022-12-25T11:01:02.103Z,12.27
2022-12-25T11:03:32.934Z,12.48
2022-12-25T11:05:59.988Z,11.25
2022-12-25T11:08:29.126Z,10.60
2022-12-25T11:10:59.308Z,8.85
2022-12-25T11:13:30.105Z,9.77
2022-12-25T11:16:10.716Z,11.00
2022-12-25T11:18:56.412Z,7.78
2022-12-25T11:21:30.165Z,7.75
2022-12-25T11:24:02.286Z,8.07
2022-12-25T11:26:31.840Z,9.05
2022-12-25T11:28:59.177Z,10.60
2022-12-25T11:31:42.971Z,9.95
2022-12-25T11:34:36.098Z,9.80
2022-12-25T11:37:08.312Z,8.88
2022-12-25T11:39:37.235Z,10.57
2022-12-25T11:42:16.350Z,9.95
2022-12-25T11:45:01.051Z,9.93
2022-12-25T11:47:36.457Z,9.27
2022-12-25T11:50:14.087Z,10.40
2022-12-25T11:52:44.817Z,8.00
2022-12-25T11:55:37.383Z,17.02
2022-12-25T11:58:15.662Z,37.38
2022-12-25T12:00:45.058Z,33.22
2022-12-25T12:03:19.968Z,13.13
2022-12-25T12:05:57.391Z,11.50
2022-12-25T12:08:24.234Z,10.50
2022-12-25T12:11:17.905Z,12.93
2022-12-25T12:13:50.164Z,8.10
2022-12-25T12:16:16.796Z,7.00
2022-12-25T12:18:50.069Z,8.45
2022-12-25T12:21:26.313Z,8.20
2022-12-25T12:24:00.443Z,8.50
2022-12-25T12:26:29.267Z,9.75
2022-12-25T12:28:59.895Z,8.77
2022-12-25T12:31:41.286Z,7.05
2022-12-25T12:34:21.006Z,7.55
2022-12-25T12:36:48.442Z,8.73
2022-12-25T12:39:25.626Z,7.90
2022-12-25T12:41:52.932Z,11.23
2022-12-25T12:44:22.769Z,10.52
2022-12-25T12:46:55.848Z,11.73
2022-12-25T12:49:22.307Z,11.52
2022-12-25T12:51:49.452Z,11.43
2022-12-25T12:54:23.604Z,10.57
2022-12-25T12:57:05.449Z,12.45
2022-12-25T12:59:49.820Z,10.82
2022-12-25T13:02:34.908Z,9.93
2022-12-25T13:05:19.165Z,10.60
2022-12-25T13:07:55.222Z,13.35
2022-12-25T13:10:31.179Z,7.50
2022-12-25T13:13:01.902Z,10.98
2022-12-25T13:15:31.591Z,11.50
2022-12-25T13:18:04.013Z,10.57
2022-12-25T13:20:45.340Z,12.73
2022-12-25T13:23:30.301Z,12.25
2022-12-25T13:25:59.324Z,10.48
2022-12-25T13:30:53.269Z,14.77
2022-12-25T13:33:22.554Z,11.38
2022-12-25T13:35:50.120Z,13.10
2022-12-25T13:38:18.165Z,13.02
2022-12-25T13:41:14.735Z,11.05
2022-12-25T13:43:43.795Z,11.65
2022-12-25T13:48:41.963Z,9.98
2022-12-25T13:51:16.821Z,10.77
2022-12-25T13:53:44.075Z,11.77
2022-12-25T13:56:16.076Z,12.15
2022-12-25T13:58:46.339Z,10.07
2022-12-25T14:01:16.276Z,13.68
2022-12-25T14:03:46.109Z,10.60
2022-12-25T14:06:27.438Z,13.55
2022-12-25T14:08:58.693Z,10.10
2022-12-25T14:11:29.479Z,13.98
2022-12-25T14:14:02.377Z,15.15
2022-12-25T14:16:29.379Z,12.00
2022-12-25T14:18:57.236Z,14.60
2022-12-25T14:21:49.140Z,11.63
2022-12-25T14:24:16.587Z,11.15
2022-12-25T14:26:43.886Z,9.75
2022-12-25T14:29:17.647Z,11.05
2022-12-25T14:31:46.700Z,9.18
2022-12-25T14:34:20.609Z,12.73
2022-12-25T14:36:48.068Z,10.77
2022-12-25T14:39:47.470Z,10.15
2022-12-25T14:42:25.864Z,12.88
2022-12-25T14:45:03.384Z,13.25
2022-12-25T14:47:32.180Z,8.98
2022-12-25T14:49:59.844Z,16.27
2022-12-25T14:52:28.070Z,9.50
2022-12-25T14:55:06.846Z,11.52
2022-12-25T14:57:41.063Z,10.05
2022-12-25T15:00:21.530Z,13.38
2022-12-25T15:02:50.143Z,13.18
2022-12-25T15:05:25.906Z,22.55
2022-12-25T15:08:08.791Z,27.90
2022-12-25T15:13:22.652Z,18.02
2022-12-25T15:15:59.996Z,41.47
2022-12-25T15:18:31.791Z,68.72
2022-12-25T15:20:58.941Z,45.95
2022-12-25T15:23:25.598Z,27.42
2022-12-25T15:25:52.662Z,12.23
2022-12-25T15:28:19.743Z,13.93
2022-12-25T15:30:47.020Z,16.75
2022-12-25T15:33:15.504Z,14.88
2022-12-25T15:35:44.185Z,14.77
2022-12-25T15:38:12.334Z,14.00
2022-12-25T15:40:39.326Z,12.32
2022-12-25T15:43:14.332Z,15.48
2022-12-25T15:45:48.893Z,12.30
2022-12-25T15:48:15.290Z,11.20
2022-12-25T15:50:42.236Z,12.73
2022-12-25T15:53:10.696Z,17.05
2022-12-25T15:55:37.696Z,18.50
2022-12-25T15:58:04.313Z,15.90
2022-12-25T16:00:30.765Z,12.82
2022-12-25T16:02:57.583Z,13.50
2022-12-25T16:05:24.049Z,11.65
2022-12-25T16:07:50.713Z,12.50
2022-12-25T16:10:20.008Z,12.07
2022-12-25T16:12:46.538Z,11.25
2022-12-25T16:15:14.913Z,10.25
2022-12-25T16:17:42.332Z,11.43
2022-12-25T16:20:09.336Z,11.88
2022-12-25T16:22:39.971Z,10.50
2022-12-25T16:25:18.547Z,10.55
2022-12-25T16:27:46.313Z,14.00
2022-12-25T16:30:15.577Z,20.52
2022-12-25T16:32:42.603Z,17.30
2022-12-25T16:35:10.733Z,31.55
2022-12-25T16:37:38.092Z,37.40
2022-12-25T16:40:05.277Z,25.67
2022-12-25T16:42:31.736Z,20.73
2022-12-25T16:44:58.214Z,18.33
2022-12-25T16:47:25.131Z,16.10
2022-12-25T16:49:52.027Z,16.73
2022-12-25T16:52:18.445Z,14.55
2022-12-25T16:54:46.595Z,14.27
2022-12-25T16:57:14.235Z,17.02
2022-12-25T16:59:41.475Z,11.30
2022-12-25T17:02:13.630Z,14.93
2022-12-25T17:04:40.171Z,19.05
2022-12-25T17:07:06.595Z,17.35
2022-12-25T17:09:37.481Z,16.25
2022-12-25T17:12:07.509Z,19.08
2022-12-25T17:14:35.073Z,14.25
2022-12-25T17:17:02.215Z,14.55
2022-12-25T17:19:29.484Z,16.73
2022-12-25T17:21:56.104Z,13.82
2022-12-25T17:24:23.320Z,16.63
2022-12-25T17:26:49.935Z,19.30
2022-12-25T17:29:21.641Z,16.25
2022-12-25T17:31:48.873Z,16.70
2022-12-25T17:34:15.649Z,18.42
2022-12-25T17:36:42.181Z,14.95
2022-12-25T17:39:10.612Z,22.50
2022-12-25T17:41:37.747Z,20.55
2022-12-25T17:44:04.429Z,19.88
2022-12-25T17:46:31.619Z,23.83
2022-12-25T17:48:59.892Z,19.88
2022-12-25T17:51:28.652Z,24.80
2022-12-25T17:53:58.279Z,28.42
2022-12-25T17:56:25.231Z,28.15
2022-12-25T17:58:57.944Z,28.40
2022-12-25T18:01:26.667Z,26.10
2022-12-25T18:03:53.618Z,28.52
2022-12-25T18:06:23.298Z,30.63
2022-12-25T18:08:50.176Z,30.70
2022-12-25T18:11:19.380Z,31.38
2022-12-25T18:13:49.709Z,35.13
2022-12-25T18:16:17.263Z,31.80
2022-12-25T18:18:51.138Z,49.85
2022-12-25T18:21:19.429Z,21.02
2022-12-25T18:23:46.395Z,19.98
2022-12-25T18:26:13.964Z,31.08
2022-12-25T18:28:42.591Z,27.65
2022-12-25T18:31:32.800Z,26.52
2022-12-25T18:34:02.501Z,25.88
2022-12-25T18:36:29.966Z,22.58
2022-12-25T18:38:57.413Z,27.27
2022-12-25T18:41:24.298Z,22.05
2022-12-25T18:43:52.122Z,28.50
2022-12-25T18:46:26.592Z,21.20
2022-12-25T18:48:55.658Z,24.27
2022-12-25T18:51:22.594Z,21.05
2022-12-25T18:53:49.208Z,25.85
2022-12-25T18:56:17.841Z,28.75
2022-12-25T19:01:20.572Z,32.10
2022-12-25T19:03:48.956Z,31.20
2022-12-25T19:06:21.854Z,32.10
2022-12-25T19:08:48.903Z,36.45
2022-12-25T19:11:16.474Z,35.97
2022-12-25T19:13:43.572Z,38.70
2022-12-25T19:16:10.790Z,36.30
2022-12-25T19:18:38.518Z,42.15
2022-12-25T19:21:07.304Z,37.92
2022-12-25T19:23:34.496Z,36.72
2022-12-25T19:26:04.558Z,39.22
2022-12-25T19:28:31.288Z,68.25
2022-12-25T19:31:00.395Z,50.60
2022-12-25T19:33:27.591Z,40.40
2022-12-25T19:35:58.572Z,61.05
2022-12-25T19:38:25.196Z,43.83
2022-12-25T19:41:00.954Z,40.50
2022-12-25T19:43:33.445Z,50.65
2022-12-25T19:46:01.512Z,41.25
2022-12-25T19:48:29.966Z,37.42
2022-12-25T19:50:56.545Z,43.22
2022-12-25T19:53:23.732Z,32.22
2022-12-25T19:55:54.407Z,24.85
2022-12-25T19:58:22.876Z,23.10
2022-12-25T20:01:01.035Z,20.10
2022-12-25T20:03:27.956Z,20.75
2022-12-25T20:05:54.643Z,20.33
2022-12-25T20:08:21.417Z,25.10
2022-12-25T20:10:51.061Z,20.85
2022-12-25T20:13:17.852Z,21.05
2022-12-25T20:15:44.767Z,18.63
2022-12-25T20:18:11.339Z,21.02
2022-12-25T20:20:37.919Z,19.88
2022-12-25T20:23:04.527Z,19.88
2022-12-25T20:25:31.250Z,17.50
2022-12-25T20:27:58.091Z,16.95
2022-12-25T20:30:24.611Z,17.48
2022-12-25T20:32:51.476Z,18.15
2022-12-25T20:35:18.083Z,17.30
2022-12-25T20:37:44.738Z,17.08
2022-12-25T20:40:12.051Z,24.58
2022-12-25T20:42:38.525Z,17.73
2022-12-25T20:45:07.418Z,25.02
2022-12-25T20:47:34.893Z,14.85
2022-12-25T20:50:01.360Z,16.85
2022-12-25T20:52:27.955Z,18.67
2022-12-25T20:54:54.441Z,16.85
2022-12-25T20:57:20.926Z,15.82
2022-12-25T20:59:47.464Z,19.48
2022-12-25T21:02:34.179Z,21.95
2022-12-25T21:05:01.131Z,20.73
2022-12-25T21:07:27.594Z,22.13
2022-12-25T21:09:54.098Z,24.75
2022-12-25T21:12:20.562Z,21.27
2022-12-25T21:14:47.097Z,22.88
2022-12-25T21:17:14.091Z,20.17
2022-12-25T21:19:40.610Z,22.25
2022-12-25T21:22:07.092Z,24.60
2022-12-25T21:24:33.935Z,23.23
2022-12-25T21:27:00.483Z,21.33
2022-12-25T21:29:27.106Z,23.38
2022-12-25T21:32:12.873Z,23.83
2022-12-25T21:34:39.891Z,21.65
2022-12-25T21:37:06.466Z,15.20
2022-12-25T21:39:32.999Z,17.33
2022-12-25T21:41:59.855Z,20.17
2022-12-25T21:44:26.390Z,23.33
2022-12-25T21:46:53.062Z,18.52
2022-12-25T21:49:39.657Z,17.85
2022-12-25T21:54:37.456Z,20.52
2022-12-25T21:57:04.993Z,18.52
2022-12-25T21:59:31.510Z,20.58
2022-12-25T22:01:59.398Z,23.90
2022-12-25T22:04:26.454Z,25.52
2022-12-25T22:07:12.144Z,21.33
2022-12-25T22:09:38.675Z,20.58
2022-12-25T22:12:28.590Z,20.88
2022-12-25T22:15:02.970Z,22.92
2022-12-25T22:17:52.553Z,24.35
2022-12-25T22:20:25.730Z,23.85
2022-12-25T22:22:52.910Z,26.23
2022-12-25T22:25:20.189Z,19.83
2022-12-25T22:27:48.501Z,19.33
2022-12-25T22:30:21.030Z,18.15
2022-12-25T22:32:48.061Z,19.00
2022-12-25T22:35:16.384Z,15.52
2022-12-25T22:37:43.830Z,18.23
2022-12-25T22:40:12.959Z,17.15
2022-12-25T22:42:40.212Z,14.68
2022-12-25T22:45:07.235Z,15.52
2022-12-25T22:47:34.057Z,13.50
2022-12-25T22:50:00.774Z,14.93
2022-12-25T22:52:27.276Z,12.95
2022-12-25T22:54:53.749Z,14.23
2022-12-25T22:57:20.266Z,11.95
2022-12-25T22:59:46.748Z,14.10
2022-12-25T23:02:13.268Z,13.93
2022-12-25T23:04:39.817Z,13.88
2022-12-25T23:07:07.080Z,14.23
2022-12-25T23:09:34.077Z,13.40
2022-12-25T23:12:00.647Z,13.95
2022-12-25T23:14:39.995Z,14.35
2022-12-25T23:17:30.138Z,12.32
2022-12-25T23:20:18.779Z,11.63
2022-12-25T23:23:04.726Z,13.82
2022-12-25T23:25:51.839Z,13.65
2022-12-25T23:28:38.325Z,12.57
2022-12-25T23:31:05.556Z,14.07
2022-12-25T23:33:32.215Z,12.52
2022-12-25T23:35:58.647Z,11.50
2022-12-25T23:38:25.429Z,11.38
2022-12-25T23:40:52.695Z,12.27
2022-12-25T23:43:19.509Z,14.13
2022-12-25T23:45:46.386Z,13.07
2022-12-25T23:48:12.881Z,10.98
2022-12-25T23:50:39.438Z,15.15
2022-12-25T23:53:05.953Z,12.88
2022-12-25T23:55:33.475Z,11.02
2022-12-25T23:57:59.963Z,13.07
